Time,TemperatureF,DewpointF,PressureIn,WindDirection,WindDirectionDegrees,WindSpeedMPH,WindSpeedGustMPH,Humidity,HourlyPrecipIn,Conditions,Clouds,dailyrainin,SolarRadiationWatts/m^2,SoftwareType,DateUTC
2013-03-31 00:11:00,36.9,15.0,30.03,WNW,302,0.0,4.0,41,0.00,,,0.00,0,weatherlink.com 1.10,2013-03-31 04:11:00,
2013-03-31 00:41:00,35.8,16.0,30.04,WNW,298,0.0,4.0,45,0.00,,,0.00,0,weatherlink.com 1.10,2013-03-31 04:41:00,
2013-03-31 00:56:00,35.5,16.0,30.04,WNW,298,0.0,0.0,45,0.00,,,0.00,0,weatherlink.com 1.10,2013-03-31 04:56:00,
2013-03-31 01:11:00,35.8,15.0,30.04,WNW,298,0.0,0.0,43,0.00,,,0.00,0,weatherlink.com 1.10,2013-03-31 05:11:00,
2013-03-31 01:26:00,35.9,16.0,30.04,WNW,298,0.0,0.0,44,0.00,,,0.00,0,weatherlink.com 1.10,2013-03-31 05:26:00,
2013-03-31 01:41:00,35.6,16.0,30.04,WNW,290,0.0,4.0,45,0.00,,,0.00,0,weatherlink.com 1.10,2013-03-31 05:41:00,
2013-03-31 01:56:00,35.2,17.0,30.04,WNW,290,0.0,4.0,47,0.00,,,0.00,0,weatherlink.com 1.10,2013-03-31 05:56:00,
2013-03-31 02:11:00,34.7,16.0,30.04,WNW,290,0.0,0.0,47,0.00,,,0.00,0,weatherlink.com 1.10,2013-03-31 06:11:00,
2013-03-31 02:26:00,34.6,16.0,30.03,WNW,290,0.0,0.0,47,0.00,,,0.00,0,weatherlink.com 1.10,2013-03-31 06:26:00,
2013-03-31 02:42:00,34.4,16.0,30.03,WNW,290,0.0,0.0,48,0.00,,,0.00,0,weatherlink.com 1.10,2013-03-31 06:42:00,
2013-03-31 02:56:00,34.0,17.0,30.03,WNW,290,0.0,2.0,50,0.00,,,0.00,0,weatherlink.com 1.10,2013-03-31 06:56:00,
2013-03-31 03:12:00,33.2,17.0,30.03,WNW,288,2.0,5.0,52,0.00,,,0.00,0,weatherlink.com 1.10,2013-03-31 07:12:00,
2013-03-31 03:26:00,32.8,17.0,30.03,West,281,0.0,5.0,52,0.00,,,0.00,0,weatherlink.com 1.10,2013-03-31 07:26:00,
2013-03-31 03:42:00,32.8,17.0,30.03,SW,229,0.0,7.0,53,0.00,,,0.00,0,weatherlink.com 1.10,2013-03-31 07:42:00,
2013-03-31 03:57:00,32.5,17.0,30.03,WSW,238,6.0,6.0,54,0.00,,,0.00,0,weatherlink.com 1.10,2013-03-31 07:57:00,
2013-03-31 04:12:00,32.2,18.0,30.03,WSW,239,4.0,5.0,56,0.00,,,0.00,0,weatherlink.com 1.10,2013-03-31 08:12:00,
2013-03-31 04:27:00,31.8,18.0,30.03,WSW,239,0.0,4.0,57,0.00,,,0.00,0,weatherlink.com 1.10,2013-03-31 08:27:00,
2013-03-31 04:42:00,31.2,18.0,30.03,WSW,239,2.0,5.0,58,0.00,,,0.00,0,weatherlink.com 1.10,2013-03-31 08:42:00,
2013-03-31 04:57:00,30.9,18.0,30.03,WSW,239,0.0,4.0,58,0.00,,,0.00,0,weatherlink.com 1.10,2013-03-31 08:57:00,
2013-03-31 05:12:00,30.9,18.0,30.03,WSW,239,0.0,4.0,59,0.00,,,0.00,0,weatherlink.com 1.10,2013-03-31 09:12:00,
2013-03-31 05:27:00,30.7,18.0,30.03,WSW,239,0.0,4.0,59,0.00,,,0.00,0,weatherlink.com 1.10,2013-03-31 09:27:00,
2013-03-31 05:42:00,30.6,18.0,30.03,WSW,239,0.0,5.0,60,0.00,,,0.00,0,weatherlink.com 1.10,2013-03-31 09:42:00,
2013-03-31 05:57:00,30.3,18.0,30.03,WSW,239,0.0,4.0,61,0.00,,,0.00,0,weatherlink.com 1.10,2013-03-31 09:57:00,
2013-03-31 06:12:00,29.7,18.0,30.03,WSW,239,0.0,4.0,62,0.00,,,0.00,0,weatherlink.com 1.10,2013-03-31 10:12:00,
2013-03-31 06:27:00,29.4,18.0,30.03,WSW,239,0.0,2.0,63,0.00,,,0.00,5,weatherlink.com 1.10,2013-03-31 10:27:00,
2013-03-31 06:42:00,29.3,18.0,30.03,WSW,239,0.0,4.0,63,0.00,,,0.00,16,weatherlink.com 1.10,2013-03-31 10:42:00,
2013-03-31 06:57:00,29.7,18.0,30.03,WSW,239,0.0,0.0,62,0.00,,,0.00,25,weatherlink.com 1.10,2013-03-31 10:57:00,
2013-03-31 07:12:00,30.0,18.0,30.03,WSW,239,0.0,4.0,62,0.00,,,0.00,26,weatherlink.com 1.10,2013-03-31 11:12:00,
2013-03-31 07:27:00,30.1,18.0,30.03,WSW,239,0.0,5.0,62,0.00,,,0.00,28,weatherlink.com 1.10,2013-03-31 11:27:00,
2013-03-31 07:42:00,30.3,18.0,30.03,WSW,239,0.0,0.0,61,0.00,,,0.00,46,weatherlink.com 1.10,2013-03-31 11:42:00,
2013-03-31 07:57:00,30.6,18.0,30.03,WSW,239,0.0,0.0,60,0.00,,,0.00,47,weatherlink.com 1.10,2013-03-31 11:57:00,
2013-03-31 08:12:00,31.2,19.0,30.03,WSW,239,0.0,0.0,60,0.00,,,0.00,97,weatherlink.com 1.10,2013-03-31 12:12:00,
2013-03-31 08:27:00,31.9,19.0,30.02,WSW,239,0.0,0.0,60,0.00,,,0.00,121,weatherlink.com 1.10,2013-03-31 12:27:00,
2013-03-31 08:42:00,35.0,21.0,30.02,WSW,239,0.0,0.0,56,0.00,,,0.00,207,weatherlink.com 1.10,2013-03-31 12:42:00,
2013-03-31 08:57:00,37.5,21.0,30.02,WSW,239,0.0,0.0,51,0.00,,,0.00,404,weatherlink.com 1.10,2013-03-31 12:57:00,
2013-03-31 09:12:00,41.6,19.0,30.01,SE,135,7.0,7.0,40,0.00,,,0.00,297,weatherlink.com 1.10,2013-03-31 13:12:00,
2013-03-31 09:27:00,44.2,17.0,30.01,SSE,153,0.0,9.0,33,0.00,,,0.00,272,weatherlink.com 1.10,2013-03-31 13:27:00,
2013-03-31 09:42:00,45.5,13.0,30.01,South,176,9.0,12.0,27,0.00,,,0.00,357,weatherlink.com 1.10,2013-03-31 13:42:00,
2013-03-31 09:57:00,46.5,15.0,30.01,SE,143,10.0,11.0,28,0.00,,,0.00,431,weatherlink.com 1.10,2013-03-31 13:57:00,
2013-03-31 10:12:00,47.3,16.0,30.01,ESE,122,8.0,9.0,28,0.00,,,0.00,541,weatherlink.com 1.10,2013-03-31 14:12:00,
2013-03-31 10:27:00,49.2,15.0,30.00,SSE,150,6.0,12.0,26,0.00,,,0.00,598,weatherlink.com 1.10,2013-03-31 14:27:00,
2013-03-31 10:43:00,49.9,18.0,30.00,SSE,161,6.0,12.0,28,0.00,,,0.00,598,weatherlink.com 1.10,2013-03-31 14:43:00,
2013-03-31 10:58:00,50.1,16.0,30.00,SSE,164,7.0,12.0,26,0.00,,,0.00,605,weatherlink.com 1.10,2013-03-31 14:58:00,
2013-03-31 11:28:00,51.9,19.0,30.00,SSE,148,5.0,13.0,27,0.00,,,0.00,649,weatherlink.com 1.10,2013-03-31 15:28:00,
2013-03-31 11:43:00,52.0,19.0,29.98,SE,146,5.0,13.0,27,0.00,,,0.00,550,weatherlink.com 1.10,2013-03-31 15:43:00,
2013-03-31 11:58:00,53.3,19.0,29.98,SSE,152,9.0,14.0,26,0.00,,,0.00,729,weatherlink.com 1.10,2013-03-31 15:58:00,
2013-03-31 12:13:00,54.1,20.0,29.97,SSW,196,7.0,13.0,26,0.00,,,0.00,763,weatherlink.com 1.10,2013-03-31 16:13:00,
2013-03-31 12:28:00,55.4,20.0,29.97,South,180,0.0,14.0,25,0.00,,,0.00,738,weatherlink.com 1.10,2013-03-31 16:28:00,
2013-03-31 12:43:00,55.7,20.0,29.96,South,171,12.0,14.0,25,0.00,,,0.00,733,weatherlink.com 1.10,2013-03-31 16:43:00,
2013-03-31 12:58:00,55.9,19.0,29.95,SSW,213,7.0,18.0,24,0.00,,,0.00,524,weatherlink.com 1.10,2013-03-31 16:58:00,
2013-03-31 13:13:00,55.7,18.0,29.94,SSW,210,11.0,20.0,23,0.00,,,0.00,529,weatherlink.com 1.10,2013-03-31 17:13:00,
2013-03-31 13:28:00,56.2,18.0,29.93,SSW,207,10.0,19.0,22,0.00,,,0.00,566,weatherlink.com 1.10,2013-03-31 17:28:00,
2013-03-31 13:43:00,56.9,17.0,29.92,ESE,108,12.0,16.0,21,0.00,,,0.00,468,weatherlink.com 1.10,2013-03-31 17:43:00,
2013-03-31 13:58:00,56.3,21.0,29.92,SSW,202,12.0,23.0,25,0.00,,,0.00,524,weatherlink.com 1.10,2013-03-31 17:58:00,
2013-03-31 14:13:00,56.0,19.0,29.91,South,177,8.0,22.0,24,0.00,,,0.00,446,weatherlink.com 1.10,2013-03-31 18:13:00,
2013-03-31 14:28:00,56.5,19.0,29.90,SSW,197,4.0,20.0,23,0.00,,,0.00,512,weatherlink.com 1.10,2013-03-31 18:28:00,
2013-03-31 14:43:00,56.6,18.0,29.90,SSW,200,16.0,21.0,22,0.00,,,0.00,359,weatherlink.com 1.10,2013-03-31 18:43:00,
2013-03-31 14:58:00,56.0,18.0,29.89,SSW,193,10.0,19.0,23,0.00,,,0.00,411,weatherlink.com 1.10,2013-03-31 18:58:00,
2013-03-31 15:13:00,56.0,18.0,29.89,SW,223,16.0,19.0,23,0.00,,,0.00,366,weatherlink.com 1.10,2013-03-31 19:13:00,
2013-03-31 15:28:00,55.7,19.0,29.88,SSW,194,11.0,16.0,24,0.00,,,0.00,241,weatherlink.com 1.10,2013-03-31 19:28:00,
2013-03-31 15:43:00,55.0,20.0,29.87,SSW,196,7.0,19.0,25,0.00,,,0.00,197,weatherlink.com 1.10,2013-03-31 19:43:00,
2013-03-31 15:58:00,54.5,20.0,29.87,SSW,196,7.0,21.0,26,0.00,,,0.00,209,weatherlink.com 1.10,2013-03-31 19:58:00,
2013-03-31 16:13:00,54.5,21.0,29.86,SSE,160,9.0,19.0,27,0.00,,,0.00,257,weatherlink.com 1.10,2013-03-31 20:13:00,
2013-03-31 16:28:00,54.7,21.0,29.86,SSE,158,12.0,23.0,27,0.00,,,0.00,295,weatherlink.com 1.10,2013-03-31 20:28:00,
2013-03-31 16:43:00,55.1,21.0,29.86,SSE,162,13.0,19.0,27,0.00,,,0.00,250,weatherlink.com 1.10,2013-03-31 20:43:00,
2013-03-31 16:58:00,54.8,21.0,29.85,South,179,12.0,25.0,27,0.00,,,0.00,202,weatherlink.com 1.10,2013-03-31 20:58:00,
2013-03-31 17:13:00,53.9,20.0,29.85,South,175,7.0,20.0,27,0.00,,,0.00,165,weatherlink.com 1.10,2013-03-31 21:13:00,
2013-03-31 17:28:00,53.6,21.0,29.84,South,173,8.0,15.0,28,0.00,,,0.00,151,weatherlink.com 1.10,2013-03-31 21:28:00,
2013-03-31 17:43:00,53.5,21.0,29.84,South,170,7.0,20.0,28,0.00,,,0.00,176,weatherlink.com 1.10,2013-03-31 21:43:00,
2013-03-31 17:58:00,53.2,21.0,29.84,SSW,208,14.0,22.0,28,0.00,,,0.00,148,weatherlink.com 1.10,2013-03-31 21:58:00,
2013-03-31 18:13:00,52.3,20.0,29.84,SSE,164,8.0,22.0,28,0.00,,,0.00,39,weatherlink.com 1.10,2013-03-31 22:13:00,
2013-03-31 18:28:00,51.3,20.0,29.84,South,189,10.0,22.0,29,0.00,,,0.00,33,weatherlink.com 1.10,2013-03-31 22:28:00,
2013-03-31 18:43:00,50.4,20.0,29.84,SSE,150,16.0,16.0,30,0.00,,,0.00,19,weatherlink.com 1.10,2013-03-31 22:43:00,
2013-03-31 18:58:00,49.8,22.0,29.84,South,184,10.0,19.0,33,0.00,,,0.00,7,weatherlink.com 1.10,2013-03-31 22:58:00,
2013-03-31 19:13:00,49.2,23.0,29.84,SSE,147,8.0,20.0,36,0.00,,,0.00,0,weatherlink.com 1.10,2013-03-31 23:13:00,
2013-03-31 19:28:00,48.6,25.0,29.84,SW,225,10.0,21.0,40,0.00,,,0.00,0,weatherlink.com 1.10,2013-03-31 23:28:00,
2013-03-31 19:44:00,47.3,31.0,29.84,SSW,199,13.0,27.0,54,0.00,,,0.00,0,weatherlink.com 1.10,2013-03-31 23:44:00,
2013-03-31 19:59:00,46.1,32.0,29.84,SSW,194,8.0,25.0,59,0.00,,,0.00,0,weatherlink.com 1.10,2013-03-31 23:59:00,
2013-03-31 20:14:00,45.2,34.0,29.84,South,172,11.0,19.0,64,0.00,,,0.00,0,weatherlink.com 1.10,2013-04-01 00:14:00,
2013-03-31 20:29:00,44.1,36.0,29.84,SSW,208,7.0,13.0,72,0.00,,,0.00,0,weatherlink.com 1.10,2013-04-01 00:29:00,
2013-03-31 20:44:00,43.1,36.0,29.83,South,182,5.0,12.0,76,0.01,,,0.01,0,weatherlink.com 1.10,2013-04-01 00:44:00,
2013-03-31 20:59:00,42.5,36.0,29.82,SSE,153,9.0,13.0,79,0.01,,,0.01,0,weatherlink.com 1.10,2013-04-01 00:59:00,
2013-03-31 21:15:00,41.9,37.0,29.82,South,169,4.0,8.0,82,0.01,,,0.01,0,weatherlink.com 1.10,2013-04-01 01:15:00,
2013-03-31 21:29:00,41.6,37.0,29.81,SSE,162,5.0,10.0,84,0.01,,,0.01,0,weatherlink.com 1.10,2013-04-01 01:29:00,
2013-03-31 21:44:00,41.3,37.0,29.80,SSE,149,5.0,8.0,85,0.00,,,0.01,0,weatherlink.com 1.10,2013-04-01 01:44:00,
2013-03-31 21:59:00,41.1,37.0,29.78,SE,145,0.0,8.0,86,0.01,,,0.02,0,weatherlink.com 1.10,2013-04-01 01:59:00,
2013-03-31 22:14:00,40.9,37.0,29.76,SE,145,0.0,0.0,87,0.01,,,0.02,0,weatherlink.com 1.10,2013-04-01 02:14:00,
2013-03-31 22:29:00,40.6,37.0,29.75,SE,145,0.0,2.0,88,0.01,,,0.02,0,weatherlink.com 1.10,2013-04-01 02:29:00,
2013-03-31 22:44:00,40.3,37.0,29.74,SE,145,0.0,0.0,89,0.01,,,0.02,0,weatherlink.com 1.10,2013-04-01 02:44:00,
2013-03-31 22:59:00,40.2,37.0,29.73,SE,144,0.0,4.0,89,0.00,,,0.02,0,weatherlink.com 1.10,2013-04-01 02:59:00,
2013-03-31 23:14:00,40.2,38.0,29.71,East,80,0.0,6.0,90,0.01,,,0.03,0,weatherlink.com 1.10,2013-04-01 03:14:00,
2013-03-31 23:29:00,40.1,38.0,29.71,East,89,0.0,0.0,91,0.01,,,0.03,0,weatherlink.com 1.10,2013-04-01 03:29:00,
2013-03-31 23:44:00,40.2,38.0,29.71,SSE,168,4.0,10.0,91,0.03,,,0.05,0,weatherlink.com 1.10,2013-04-01 03:44:00,
2013-03-31 23:59:00,40.3,38.0,29.70,ESE,113,0.0,7.0,92,0.03,,,0.05,0,weatherlink.com 1.10,2013-04-01 03:59:00,